Time;durP1;ratioP1;P1;durP2;ratioP2;P2;SDS_P1;SDS_P2;PMS_P1;PMS_P2;Temp;Humidity;BMP_temperature;BMP_pressure;BME280_temperature;BME280_humidity;BME280_pressure;Samples;Min_cycle;Max_cycle;Signal;HPM_P1;HPM_P2
2023/06/15 00:00:37;;;;;;;19.98;16.65;;;;;;;23.88;65.94;98276.75;2072592;28;20803;-48
2023/06/15 00:01:38;;;;;;;23.33;17.50;;;;;;;23.89;66.12;98279.19;2070916;28;20451;-50
2023/06/15 00:02:40;;;;;;;20.08;17.40;;;;;;;23.89;66.30;98281.09;2071037;28;20061;-48
2023/06/15 00:03:43;;;;;;;20.85;16.90;;;;;;;23.88;66.07;98282.97;2071666;28;20579;-49
2023/06/15 00:04:43;;;;;;;19.58;16.48;;;;;;;23.88;65.70;98282.97;2071059;28;20068;-48
2023/06/15 00:05:45;;;;;;;24.48;17.38;;;;;;;23.90;65.76;98282.72;2070507;28;20731;-52
2023/06/15 00:06:46;;;;;;;22.08;17.05;;;;;;;23.91;65.76;98278.97;2071849;28;20276;-50
2023/06/15 00:07:49;;;;;;;21.85;16.85;;;;;;;23.90;65.65;98280.00;2071692;28;20053;-48
2023/06/15 00:08:50;;;;;;;21.23;16.73;;;;;;;23.90;65.72;98275.41;2072024;28;20115;-52
2023/06/15 00:09:52;;;;;;;20.63;15.07;;;;;;;23.89;65.93;98275.66;2069139;28;20714;-48
2023/06/15 00:10:53;;;;;;;18.95;16.17;;;;;;;23.90;65.92;98282.72;2071924;28;20159;-49
2023/06/15 00:11:55;;;;;;;19.08;15.63;;;;;;;23.89;66.04;98279.19;2070146;28;20358;-55
2023/06/15 00:12:56;;;;;;;17.38;15.30;;;;;;;23.88;65.70;98274.84;2065083;28;20052;-52
2023/06/15 00:13:57;;;;;;;19.77;15.82;;;;;;;23.89;65.95;98278.38;2063369;28;20049;-51
2023/06/15 00:14:58;;;;;;;21.52;17.70;;;;;;;23.89;65.82;98270.25;2067009;28;20164;-48
2023/06/15 00:16:00;;;;;;;22.55;17.02;;;;;;;23.88;66.18;98271.34;2067111;28;20053;-54
2023/06/15 00:17:01;;;;;;;20.35;16.50;;;;;;;23.88;66.01;98274.84;2065058;28;20491;-53
2023/06/15 00:18:03;;;;;;;23.48;16.30;;;;;;;23.89;66.25;98275.66;2064753;28;20144;-48
2023/06/15 00:19:03;;;;;;;23.30;17.20;;;;;;;23.88;66.06;98269.44;2064461;28;20107;-49
2023/06/15 00:20:08;;;;;;;19.50;15.57;;;;;;;23.89;65.86;98268.34;2066361;28;20510;-53
2023/06/15 00:21:13;;;;;;;22.70;15.90;;;;;;;23.86;65.81;98269.66;2066205;28;20766;-55
2023/06/15 00:22:15;;;;;;;18.70;16.02;;;;;;;23.89;66.25;98272.97;2064677;28;20056;-48
2023/06/15 00:23:17;;;;;;;20.27;15.63;;;;;;;23.89;66.53;98270.25;2063175;28;20050;-55
2023/06/15 00:24:19;;;;;;;19.25;15.48;;;;;;;23.86;66.18;98268.84;2066168;28;20046;-51
2023/06/15 00:25:19;;;;;;;19.42;16.02;;;;;;;23.85;65.84;98273.44;2065735;28;20052;-56
2023/06/15 00:26:21;;;;;;;19.67;15.25;;;;;;;23.85;66.04;98268.03;2066641;28;20057;-53
2023/06/15 00:27:22;;;;;;;21.52;15.23;;;;;;;23.85;66.51;98268.03;2064805;28;20132;-52
2023/06/15 00:28:24;;;;;;;21.30;16.73;;;;;;;23.85;66.53;98264.50;2064587;28;20053;-52
2023/06/15 00:29:25;;;;;;;19.48;16.20;;;;;;;23.85;66.55;98267.22;2066249;28;20084;-55
2023/06/15 00:30:27;;;;;;;17.95;15.05;;;;;;;23.88;66.31;98268.63;2064667;28;20402;-51
2023/06/15 00:31:27;;;;;;;17.88;14.48;;;;;;;23.87;66.10;98265.06;2065368;28;20537;-52
2023/06/15 00:32:29;;;;;;;20.42;14.65;;;;;;;23.87;66.43;98265.06;2064335;28;20061;-52
2023/06/15 00:33:30;;;;;;;18.90;15.15;;;;;;;23.85;66.09;98268.03;2057024;28;20282;-49
2023/06/15 00:34:32;;;;;;;20.13;16.13;;;;;;;23.83;66.14;98264.75;2064866;28;20049;-54
2023/06/15 00:35:33;;;;;;;19.15;15.20;;;;;;;23.84;66.17;98265.56;2064921;28;20526;-54
2023/06/15 00:36:35;;;;;;;17.88;14.75;;;;;;;23.85;66.30;98262.63;2064546;28;20136;-54
2023/06/15 00:37:36;;;;;;;19.23;15.38;;;;;;;23.85;66.18;98259.09;2068067;28;20050;-53
2023/06/15 00:38:39;;;;;;;18.05;15.00;;;;;;;23.85;66.32;98257.22;2066143;28;20409;-54
2023/06/15 00:39:40;;;;;;;18.35;15.27;;;;;;;23.85;66.00;98261.81;2061660;28;20361;-53
2023/06/15 00:40:42;;;;;;;21.95;15.50;;;;;;;23.83;66.08;98256.63;2065729;28;20495;-49
2023/06/15 00:41:43;;;;;;;19.00;15.35;;;;;;;23.85;66.48;98262.63;2065711;28;20081;-50
2023/06/15 00:42:45;;;;;;;19.05;15.07;;;;;;;23.85;66.45;98265.34;2064147;28;20050;-53
2023/06/15 00:43:46;;;;;;;20.77;16.08;;;;;;;23.85;66.19;98267.22;2064696;28;20235;-51
2023/06/15 00:44:48;;;;;;;16.27;13.40;;;;;;;23.84;66.21;98266.38;2063221;28;20074;-54
2023/06/15 00:45:49;;;;;;;16.95;14.50;;;;;;;23.86;66.11;98258.03;2064750;28;20060;-51
2023/06/15 00:46:51;;;;;;;21.10;15.80;;;;;;;23.85;66.62;98259.91;2064527;28;20496;-51
2023/06/15 00:47:52;;;;;;;17.30;13.90;;;;;;;23.83;66.12;98259.34;2066596;28;20072;-48
2023/06/15 00:48:54;;;;;;;19.17;14.55;;;;;;;23.84;66.14;98265.56;2067422;28;21965;-57
2023/06/15 00:49:57;;;;;;;20.05;14.23;;;;;;;23.83;66.25;98256.63;2061750;28;20812;-54
2023/06/15 00:50:59;;;;;;;16.75;14.10;;;;;;;23.84;66.34;98257.44;2063758;28;20171;-52
2023/06/15 00:52:00;;;;;;;18.50;14.05;;;;;;;23.85;66.33;98261.81;2064876;28;20061;-56
2023/06/15 00:53:05;;;;;;;20.08;15.30;;;;;;;23.84;65.82;98252.03;2065652;28;20048;-52
2023/06/15 00:54:08;;;;;;;17.30;13.88;;;;;;;23.86;65.84;98258.03;2063489;28;20909;-48
2023/06/15 00:55:12;;;;;;;20.00;15.15;;;;;;;23.85;66.32;98257.22;2062012;28;20056;-54
2023/06/15 00:56:13;;;;;;;20.55;14.63;;;;;;;23.83;65.97;98251.22;2067704;28;20525;-50
2023/06/15 00:57:15;;;;;;;16.50;13.65;;;;;;;23.85;66.33;98256.38;2064226;28;20059;-53
2023/06/15 00:58:17;;;;;;;19.80;14.43;;;;;;;23.85;66.45;98259.09;2063036;28;20065;-49
2023/06/15 00:59:19;;;;;;;17.17;13.93;;;;;;;23.82;66.05;98257.69;2061294;28;20041;-51
2023/06/15 01:00:22;;;;;;;18.48;14.32;;;;;;;23.84;66.12;98255.53;2065049;28;20097;-50
2023/06/15 01:01:23;;;;;;;20.13;14.95;;;;;;;23.82;65.85;98260.41;2061008;28;21512;-48
2023/06/15 01:02:25;;;;;;;18.15;14.35;;;;;;;23.83;65.98;98259.34;2063596;28;20099;-48
2023/06/15 01:03:26;;;;;;;18.80;14.73;;;;;;;23.84;66.07;98254.72;2063457;28;20777;-50
2023/06/15 01:04:27;;;;;;;15.95;13.73;;;;;;;23.84;66.12;98255.53;2063194;28;20058;-49
2023/06/15 01:05:28;;;;;;;21.63;14.57;;;;;;;23.84;66.13;98255.53;2063244;28;20469;-52
2023/06/15 01:06:37;;;;;;;16.33;13.32;;;;;;;23.85;65.96;98259.91;2064002;28;21790;-50
2023/06/15 01:07:40;;;;;;;18.55;14.27;;;;;;;23.81;66.57;98253.34;2061812;28;20961;-51
2023/06/15 01:08:47;;;;;;;17.45;14.30;;;;;;;23.82;66.13;98256.84;2065740;28;20069;-55
2023/06/15 01:09:49;;;;;;;15.20;13.55;;;;;;;23.81;66.39;98256.03;2063601;28;20056;-51
2023/06/15 01:10:53;;;;;;;17.52;14.32;;;;;;;23.83;66.40;98247.69;2062126;28;20079;-49
2023/06/15 01:11:57;;;;;;;15.60;13.02;;;;;;;23.83;65.97;98258.53;2065711;28;20069;-56
2023/06/15 01:13:01;;;;;;;15.63;13.02;;;;;;;23.83;66.03;98253.91;2065980;28;20056;-52
2023/06/15 01:14:03;;;;;;;14.80;13.23;;;;;;;23.81;66.53;98256.03;2061816;28;20857;-53
2023/06/15 01:15:06;;;;;;;15.82;13.65;;;;;;;23.81;66.04;98258.75;2062611;28;20049;-50
2023/06/15 01:16:11;;;;;;;17.13;13.85;;;;;;;23.82;66.24;98254.16;2062816;28;20145;-51
2023/06/15 01:17:15;;;;;;;13.95;12.48;;;;;;;23.81;66.13;98256.03;2066775;28;20050;-55
2023/06/15 01:18:20;;;;;;;16.17;14.40;;;;;;;23.79;66.67;98252.78;2063801;28;20148;-53
2023/06/15 01:19:39;;;;;;;16.20;13.20;;;;;;;23.79;66.55;98251.94;2061227;28;23717;-51
2023/06/15 01:20:42;;;;;;;16.77;13.18;;;;;;;23.77;66.67;98249.50;2065599;28;20058;-51
2023/06/15 01:21:46;;;;;;;14.88;12.60;;;;;;;23.81;66.32;98255.22;2064858;28;20042;-53
2023/06/15 01:22:55;;;;;;;15.50;13.52;;;;;;;23.79;66.47;98251.94;2061684;28;20509;-55
2023/06/15 01:24:18;;;;;;;15.63;12.73;;;;;;;23.77;66.32;98256.81;2063324;28;20261;-52
2023/06/15 01:25:29;;;;;;;16.83;13.20;;;;;;;23.75;66.35;98251.63;2064071;28;20046;-52
2023/06/15 01:26:34;;;;;;;17.35;12.68;;;;;;;23.77;66.50;98254.91;2062189;28;20053;-50
2023/06/15 01:27:36;;;;;;;17.42;14.38;;;;;;;23.79;66.56;98255.50;2066035;28;20061;-52
2023/06/15 01:28:40;;;;;;;17.00;12.88;;;;;;;23.79;66.81;98252.78;2064290;28;20054;-52
2023/06/15 01:29:41;;;;;;;15.57;12.93;;;;;;;23.77;66.46;98252.19;2063326;28;20050;-50
2023/06/15 01:30:45;;;;;;;15.90;12.93;;;;;;;23.79;66.81;98258.19;2064263;28;20059;-52
2023/06/15 01:31:46;;;;;;;15.95;13.20;;;;;;;23.79;66.90;98251.94;2066247;28;20088;-54
2023/06/15 01:32:48;;;;;;;15.25;13.30;;;;;;;23.82;66.17;98256.84;2068855;28;20522;-55
2023/06/15 01:33:50;;;;;;;15.63;11.98;;;;;;;23.81;66.30;98250.63;2070623;28;20987;-54
2023/06/15 01:34:52;;;;;;;16.25;13.15;;;;;;;23.80;66.74;98249.00;2066293;28;20060;-52
2023/06/15 01:35:53;;;;;;;14.70;12.50;;;;;;;23.80;66.98;98248.19;2065735;28;20065;-50
2023/06/15 01:36:55;;;;;;;15.65;12.02;;;;;;;23.77;66.43;98252.19;2061166;28;20057;-55
2023/06/15 01:37:56;;;;;;;17.27;13.07;;;;;;;23.78;66.43;98253.00;2063055;28;20144;-51
2023/06/15 01:38:59;;;;;;;15.40;12.95;;;;;;;23.79;66.06;98241.09;2062538;28;20054;-51
2023/06/15 01:39:59;;;;;;;15.30;12.10;;;;;;;23.80;66.43;98250.88;2066419;28;20048;-56
2023/06/15 01:41:02;;;;;;;17.05;12.57;;;;;;;23.81;66.52;98242.50;2068875;28;20046;-48
2023/06/15 01:42:05;;;;;;;16.25;13.38;;;;;;;23.82;66.57;98246.88;2070887;28;20140;-53
2023/06/15 01:43:09;;;;;;;13.30;11.52;;;;;;;23.80;66.63;98240.88;2070215;28;20489;-48
2023/06/15 01:44:11;;;;;;;16.20;12.60;;;;;;;23.78;66.91;98234.88;2072969;28;20372;-51
2023/06/15 01:45:15;;;;;;;13.98;11.75;;;;;;;23.78;66.69;98243.00;2070257;28;20154;-52
2023/06/15 01:46:17;;;;;;;15.27;11.93;;;;;;;23.79;66.56;98241.09;2071775;28;20463;-52
2023/06/15 01:47:19;;;;;;;15.10;12.73;;;;;;;23.78;66.76;98234.06;2070844;28;20120;-50
2023/06/15 01:48:20;;;;;;;14.07;12.48;;;;;;;23.80;66.82;98238.16;2071993;28;20507;-52
2023/06/15 01:49:22;;;;;;;15.43;13.43;;;;;;;23.80;66.40;98240.88;2071285;28;20466;-50
2023/06/15 01:50:24;;;;;;;14.55;11.98;;;;;;;23.80;66.71;98243.59;2072825;28;20044;-50
2023/06/15 01:51:28;;;;;;;13.52;11.65;;;;;;;23.81;66.67;98247.09;2070850;28;20107;-55
2023/06/15 01:52:29;;;;;;;15.57;11.60;;;;;;;23.80;66.71;98240.88;2072338;28;20049;-48
2023/06/15 01:53:31;;;;;;;14.30;11.82;;;;;;;23.80;66.41;98235.47;2070947;28;20045;-54
2023/06/15 01:54:32;;;;;;;15.75;12.88;;;;;;;23.80;66.63;98243.59;2071434;28;20350;-51
2023/06/15 01:55:35;;;;;;;18.85;12.90;;;;;;;23.79;66.82;98247.38;2071179;28;20038;-48
2023/06/15 01:56:36;;;;;;;15.60;12.00;;;;;;;23.80;66.68;98242.75;2072819;28;20092;-54
2023/06/15 01:57:40;;;;;;;14.88;11.55;;;;;;;23.79;66.91;98241.94;2071931;28;20054;-50
2023/06/15 01:58:41;;;;;;;16.02;12.68;;;;;;;23.76;67.02;98245.13;2072693;28;20056;-52
2023/06/15 01:59:43;;;;;;;13.35;11.88;;;;;;;23.79;66.55;98235.69;2072117;28;20507;-52
2023/06/15 02:00:44;;;;;;;13.57;11.85;;;;;;;23.79;67.07;98243.81;2074120;28;20049;-50
2023/06/15 02:01:46;;;;;;;14.98;11.35;;;;;;;23.79;66.67;98236.53;2073199;28;20132;-53
2023/06/15 02:02:47;;;;;;;13.98;10.95;;;;;;;23.80;66.81;98232.75;2071334;28;20099;-51
2023/06/15 02:03:53;;;;;;;14.05;11.80;;;;;;;23.78;67.32;98228.66;2070227;28;20108;-51
2023/06/15 02:04:53;;;;;;;13.75;11.10;;;;;;;23.77;67.49;98235.94;2072135;28;20519;-53
2023/06/15 02:05:55;;;;;;;14.20;11.90;;;;;;;23.78;67.01;98244.88;2069828;28;20073;-53
2023/06/15 02:06:57;;;;;;;12.52;11.23;;;;;;;23.79;66.66;98239.25;2071477;28;20056;-53
2023/06/15 02:07:58;;;;;;;13.85;11.35;;;;;;;23.80;66.72;98237.34;2072008;28;20062;-54
2023/06/15 02:08:59;;;;;;;12.65;11.35;;;;;;;23.79;66.83;98233.81;2071716;28;20427;-48
2023/06/15 02:10:01;;;;;;;16.73;11.00;;;;;;;23.79;66.99;98238.41;2072565;28;20053;-50
2023/06/15 02:11:02;;;;;;;15.13;12.20;;;;;;;23.77;66.97;98241.38;2070600;28;20443;-54
2023/06/15 02:12:04;;;;;;;14.45;11.98;;;;;;;23.77;66.63;98245.97;2071712;28;20125;-53
2023/06/15 02:13:07;;;;;;;17.33;12.07;;;;;;;23.79;66.76;98247.38;2073312;28;20088;-50
2023/06/15 02:14:09;;;;;;;12.60;11.02;;;;;;;23.78;67.15;98243.00;2070715;28;20056;-48
2023/06/15 02:15:10;;;;;;;15.07;11.23;;;;;;;23.76;67.10;98247.84;2064739;28;20081;-49
2023/06/15 02:16:12;;;;;;;13.32;10.35;;;;;;;23.77;66.83;98249.50;2063413;28;20141;-55
2023/06/15 02:17:13;;;;;;;13.38;10.82;;;;;;;23.76;67.10;98245.13;2063690;28;20062;-49
2023/06/15 02:18:16;;;;;;;14.38;11.55;;;;;;;23.78;66.63;98243.00;2067405;28;20060;-53
2023/06/15 02:19:20;;;;;;;13.07;10.60;;;;;;;23.77;67.29;98241.38;2064788;28;20451;-51
2023/06/15 02:20:22;;;;;;;12.40;10.27;;;;;;;23.77;66.84;98238.66;2063681;28;20122;-51
2023/06/15 02:21:23;;;;;;;11.80;10.18;;;;;;;23.77;66.99;98238.66;2066419;28;20053;-53
2023/06/15 02:22:25;;;;;;;12.18;10.48;;;;;;;23.77;66.53;98244.06;2067137;28;20053;-50
2023/06/15 02:23:26;;;;;;;16.67;10.10;;;;;;;23.76;67.13;98247.00;2063204;28;20049;-49
2023/06/15 02:24:28;;;;;;;12.25;10.98;;;;;;;23.77;67.08;98243.25;2063321;28;20116;-50
2023/06/15 02:25:30;;;;;;;12.55;10.05;;;;;;;23.77;66.83;98249.50;2062704;28;20050;-51
2023/06/15 02:26:32;;;;;;;13.73;10.30;;;;;;;23.76;67.16;98253.25;2063825;28;20057;-51
2023/06/15 02:27:33;;;;;;;13.10;10.95;;;;;;;23.78;67.43;98242.19;2065583;28;20059;-52
2023/06/15 02:28:36;;;;;;;12.05;10.02;;;;;;;23.77;67.25;98246.78;2065332;28;20128;-50
2023/06/15 02:29:37;;;;;;;14.27;10.63;;;;;;;23.75;67.54;98248.91;2069405;28;20068;-50
2023/06/15 02:30:39;;;;;;;11.60;10.27;;;;;;;23.76;66.75;98247.84;2067594;28;20050;-50
2023/06/15 02:31:40;;;;;;;11.45;9.75;;;;;;;23.77;66.86;98251.38;2067782;28;20050;-53
2023/06/15 02:32:42;;;;;;;11.20;9.93;;;;;;;23.76;67.36;98253.25;2065486;28;20140;-50
2023/06/15 02:33:42;;;;;;;10.68;9.52;;;;;;;23.77;66.86;98249.50;2063247;28;20049;-49
2023/06/15 02:34:44;;;;;;;13.50;10.20;;;;;;;23.77;67.02;98252.19;2064280;28;20053;-50
2023/06/15 02:35:45;;;;;;;10.60;8.85;;;;;;;23.77;66.73;98249.50;2067029;28;20190;-50
2023/06/15 02:36:48;;;;;;;13.00;10.43;;;;;;;23.77;66.63;98249.50;2064409;28;20845;-49
2023/06/15 02:37:49;;;;;;;13.32;10.35;;;;;;;23.76;67.11;98250.53;2064647;28;20442;-51
2023/06/15 02:38:51;;;;;;;11.40;9.63;;;;;;;23.78;66.50;98256.53;2064452;28;20129;-49
2023/06/15 02:39:52;;;;;;;12.75;9.95;;;;;;;23.76;66.95;98257.84;2063198;28;21717;-49
2023/06/15 02:40:53;;;;;;;13.05;10.43;;;;;;;23.79;66.65;98260.06;2065687;28;20065;-49
2023/06/15 02:41:54;;;;;;;15.20;9.82;;;;;;;23.78;66.81;98261.94;2066567;28;20049;-48
2023/06/15 02:42:56;;;;;;;11.00;9.65;;;;;;;23.78;66.52;98258.44;2066255;28;20046;-50
2023/06/15 02:43:58;;;;;;;11.25;8.63;;;;;;;23.78;66.59;98259.25;2064440;28;20571;-52
2023/06/15 02:45:02;;;;;;;15.35;9.57;;;;;;;23.77;66.76;98259.50;2066853;28;20483;-50
2023/06/15 02:46:03;;;;;;;10.90;9.10;;;;;;;23.78;66.69;98261.13;2067766;28;20390;-52
2023/06/15 02:47:06;;;;;;;11.20;9.38;;;;;;;23.77;66.62;98263.03;2064496;28;20611;-49
2023/06/15 02:48:08;;;;;;;9.82;8.05;;;;;;;23.78;66.40;98259.25;2065992;28;20744;-49
2023/06/15 02:49:10;;;;;;;12.95;9.43;;;;;;;23.77;66.71;98259.50;2066183;28;20057;-49
2023/06/15 02:50:11;;;;;;;9.80;8.80;;;;;;;23.75;66.73;98256.22;2065994;28;20061;-48
2023/06/15 02:51:12;;;;;;;10.52;8.85;;;;;;;23.77;66.99;98262.22;2064297;28;20506;-49
2023/06/15 02:52:13;;;;;;;9.65;8.25;;;;;;;23.77;66.56;98256.81;2064776;28;20060;-50
2023/06/15 02:53:15;;;;;;;10.02;9.02;;;;;;;23.74;66.68;98251.88;2066143;28;20131;-50
2023/06/15 02:54:16;;;;;;;10.07;8.93;;;;;;;23.75;66.63;98259.75;2063348;28;20119;-49
2023/06/15 02:55:18;;;;;;;11.02;8.63;;;;;;;23.75;66.73;98261.63;2065112;28;20272;-48
2023/06/15 02:56:20;;;;;;;10.27;8.52;;;;;;;23.76;66.66;98263.25;2063892;28;20049;-50
2023/06/15 02:57:23;;;;;;;9.77;8.13;;;;;;;23.75;66.77;98267.88;2065358;28;20135;-50
2023/06/15 02:58:25;;;;;;;10.65;8.75;;;;;;;23.74;66.80;98266.22;2065098;28;20144;-51
2023/06/15 02:59:28;;;;;;;9.48;8.48;;;;;;;23.75;66.67;98267.88;2064426;28;20124;-49
2023/06/15 03:00:30;;;;;;;11.18;8.20;;;;;;;23.75;67.08;98278.69;2068327;28;20080;-49
2023/06/15 03:01:38;;;;;;;13.52;8.05;;;;;;;23.76;66.68;98277.63;2070279;28;20050;-50
2023/06/15 03:02:38;;;;;;;10.23;7.68;;;;;;;23.74;66.41;98265.41;2069988;28;20045;-50
2023/06/15 03:03:42;;;;;;;9.65;7.57;;;;;;;23.74;66.40;98266.22;2069373;28;20466;-50
2023/06/15 03:04:44;;;;;;;8.40;7.50;;;;;;;23.75;66.87;98270.56;2073136;28;20505;-49
2023/06/15 03:05:46;;;;;;;10.45;8.35;;;;;;;23.75;66.54;98278.69;2072058;28;20060;-51
2023/06/15 03:06:49;;;;;;;15.15;8.75;;;;;;;23.74;66.67;98271.66;2071445;28;20443;-54
2023/06/15 03:07:52;;;;;;;10.10;8.02;;;;;;;23.74;66.36;98271.66;2069273;28;20085;-48
2023/06/15 03:08:53;;;;;;;12.25;8.75;;;;;;;23.76;66.68;98269.50;2070601;28;20049;-49
2023/06/15 03:09:55;;;;;;;8.07;7.28;;;;;;;23.74;66.80;98265.41;2068890;28;20145;-51
2023/06/15 03:10:56;;;;;;;9.13;7.93;;;;;;;23.74;66.51;98271.66;2069723;28;20563;-49
2023/06/15 03:11:58;;;;;;;9.43;7.55;;;;;;;23.74;66.31;98276.25;2072238;28;20053;-48
2023/06/15 03:12:58;;;;;;;8.93;7.57;;;;;;;23.73;66.61;98272.69;2070327;28;20050;-49
2023/06/15 03:14:00;;;;;;;8.60;7.68;;;;;;;23.73;66.41;98277.28;2070102;28;20955;-52
2023/06/15 03:15:03;;;;;;;9.52;8.25;;;;;;;23.73;66.66;98275.41;2071252;28;20416;-51
2023/06/15 03:16:07;;;;;;;11.15;7.57;;;;;;;23.74;66.80;98271.66;2066718;28;20049;-49
2023/06/15 03:17:10;;;;;;;8.38;7.40;;;;;;;23.72;66.73;98275.66;2066282;28;20045;-50
2023/06/15 03:18:11;;;;;;;12.27;7.80;;;;;;;23.72;66.57;98267.53;2065577;28;20184;-49
2023/06/15 03:19:12;;;;;;;8.80;7.32;;;;;;;23.71;66.53;98263.19;2065664;28;20563;-49
2023/06/15 03:20:14;;;;;;;8.23;7.38;;;;;;;23.69;66.65;98263.41;2063431;28;20579;-49
2023/06/15 03:21:15;;;;;;;9.23;7.70;;;;;;;23.71;66.33;98271.31;2067463;28;20153;-48
2023/06/15 03:22:17;;;;;;;11.02;7.35;;;;;;;23.71;66.64;98266.72;2070975;28;20308;-49
2023/06/15 03:23:18;;;;;;;8.48;6.90;;;;;;;23.71;66.74;98265.88;2073721;28;20068;-49
2023/06/15 03:24:21;;;;;;;7.63;6.63;;;;;;;23.71;66.71;98269.44;2071659;28;20164;-50
2023/06/15 03:25:21;;;;;;;12.90;7.28;;;;;;;23.71;66.25;98272.16;2071756;28;20056;-50
2023/06/15 03:26:26;;;;;;;8.45;6.90;;;;;;;23.70;66.88;98275.88;2070922;28;20482;-51
2023/06/15 03:27:29;;;;;;;9.02;7.03;;;;;;;23.71;66.76;98271.31;2070766;28;20649;-48
2023/06/15 03:28:37;;;;;;;10.27;7.00;;;;;;;23.69;66.34;98270.72;2071155;28;20046;-50
2023/06/15 03:29:38;;;;;;;7.82;7.13;;;;;;;23.69;66.57;98274.25;2066675;28;20136;-51
2023/06/15 03:30:41;;;;;;;7.88;7.05;;;;;;;23.69;66.65;98268.81;2068332;28;20493;-50
2023/06/15 03:31:44;;;;;;;8.63;6.88;;;;;;;23.67;66.73;98270.13;2068387;28;20671;-49
2023/06/15 03:32:47;;;;;;;9.60;7.75;;;;;;;23.68;66.62;98277.19;2071093;28;20527;-49
2023/06/15 03:33:47;;;;;;;8.63;7.18;;;;;;;23.67;66.86;98267.44;2070232;28;20488;-49
2023/06/15 03:34:49;;;;;;;8.70;7.20;;;;;;;23.68;66.77;98274.47;2072107;28;20049;-50
2023/06/15 03:35:50;;;;;;;9.15;7.13;;;;;;;23.68;66.78;98271.75;2072883;28;20053;-49
2023/06/15 03:36:52;;;;;;;11.48;7.05;;;;;;;23.66;66.89;98277.44;2068970;28;20487;-50
2023/06/15 03:37:53;;;;;;;8.52;5.72;;;;;;;23.66;66.98;98269.31;2068012;28;20077;-50
2023/06/15 03:38:54;;;;;;;9.77;6.85;;;;;;;23.67;66.64;98275.53;2069743;28;20057;-49
2023/06/15 03:39:55;;;;;;;7.40;6.60;;;;;;;23.66;66.79;98273.91;2070119;28;20068;-50
2023/06/15 03:40:57;;;;;;;7.85;6.80;;;;;;;23.67;66.85;98272.84;2072619;28;20045;-49
2023/06/15 03:41:58;;;;;;;8.80;7.63;;;;;;;23.65;66.80;98273.06;2072167;28;20133;-49
2023/06/15 03:43:00;;;;;;;9.43;7.38;;;;;;;23.66;66.62;98274.72;2072311;28;20076;-49
2023/06/15 03:44:00;;;;;;;8.05;6.60;;;;;;;23.67;66.94;98270.13;2070954;28;20241;-49
2023/06/15 03:45:02;;;;;;;8.25;6.72;;;;;;;23.66;66.85;98265.78;2071228;28;20045;-51
2023/06/15 03:46:05;;;;;;;8.52;7.65;;;;;;;23.66;66.49;98269.31;2068313;28;20171;-52
2023/06/15 03:47:08;;;;;;;8.73;6.82;;;;;;;23.65;66.86;98278.50;2069225;28;20340;-50
2023/06/15 03:48:08;;;;;;;9.52;6.90;;;;;;;23.64;66.84;98279.56;2071273;28;20530;-51
2023/06/15 03:49:10;;;;;;;7.53;6.82;;;;;;;23.64;66.97;98276.84;2070642;28;20056;-48
2023/06/15 03:50:11;;;;;;;9.07;7.43;;;;;;;23.63;66.42;98267.91;2071529;28;20134;-49
2023/06/15 03:51:13;;;;;;;6.18;5.57;;;;;;;23.64;66.81;98277.66;2068576;28;20057;-49
2023/06/15 03:52:14;;;;;;;8.05;6.60;;;;;;;23.64;66.65;98276.84;2072761;28;20212;-50
2023/06/15 03:53:16;;;;;;;8.38;6.10;;;;;;;23.65;66.86;98275.78;2068535;28;20054;-48
2023/06/15 03:54:17;;;;;;;8.15;5.95;;;;;;;23.63;66.73;98275.22;2069810;28;20485;-49
2023/06/15 03:55:20;;;;;;;7.35;6.65;;;;;;;23.66;66.46;98273.91;2071856;28;20053;-52
2023/06/15 03:56:21;;;;;;;7.82;6.68;;;;;;;23.65;66.64;98278.50;2070557;28;20621;-50
2023/06/15 03:57:22;;;;;;;7.28;5.75;;;;;;;23.64;66.51;98277.66;2068978;28;20133;-49
2023/06/15 03:58:24;;;;;;;5.90;5.30;;;;;;;23.64;66.64;98280.38;2069867;28;20053;-50
2023/06/15 03:59:27;;;;;;;7.05;6.35;;;;;;;23.64;66.58;98285.78;2070327;28;20466;-49
2023/06/15 04:00:27;;;;;;;6.93;6.22;;;;;;;23.63;66.54;98281.47;2068436;28;20149;-49
2023/06/15 04:01:30;;;;;;;6.60;5.63;;;;;;;23.66;66.16;98284.75;2068871;28;20373;-51
2023/06/15 04:02:31;;;;;;;9.77;6.75;;;;;;;23.64;66.62;98280.38;2070070;28;20059;-51
2023/06/15 04:03:34;;;;;;;7.70;6.63;;;;;;;23.66;66.61;98285.56;2070988;28;20381;-55
2023/06/15 04:04:35;;;;;;;10.48;6.50;;;;;;;23.65;66.32;98283.91;2072614;28;20813;-51
2023/06/15 04:05:37;;;;;;;7.25;5.75;;;;;;;23.66;66.36;98284.75;2068414;28;20061;-49
2023/06/15 04:06:38;;;;;;;7.25;6.55;;;;;;;23.66;66.16;98287.47;2071568;28;20645;-49
2023/06/15 04:07:40;;;;;;;7.35;6.65;;;;;;;23.64;66.59;98295.81;2071201;28;20441;-50
2023/06/15 04:08:41;;;;;;;7.72;5.95;;;;;;;23.66;66.36;98290.97;2071632;28;20055;-50
2023/06/15 04:09:43;;;;;;;8.43;7.07;;;;;;;23.65;66.31;98289.31;2067325;28;20599;-54
2023/06/15 04:10:44;;;;;;;9.30;6.20;;;;;;;23.66;66.65;98292.88;2069719;28;20081;-51
2023/06/15 04:11:45;;;;;;;7.78;5.90;;;;;;;23.64;66.20;98293.09;2072866;28;20041;-51
2023/06/15 04:12:46;;;;;;;6.90;5.68;;;;;;;23.64;66.20;98293.09;2070720;28;20045;-49
2023/06/15 04:13:48;;;;;;;6.38;5.78;;;;;;;23.64;66.27;98298.50;2064901;28;20140;-53
2023/06/15 04:14:49;;;;;;;9.07;6.43;;;;;;;23.64;66.58;98302.03;2063438;28;20080;-55
2023/06/15 04:15:52;;;;;;;6.70;5.05;;;;;;;23.61;66.57;98294.41;2063723;28;20132;-54
2023/06/15 04:16:54;;;;;;;8.00;5.78;;;;;;;23.63;66.59;98296.88;2065621;28;20080;-55
2023/06/15 04:18:00;;;;;;;8.32;6.00;;;;;;;23.64;66.52;98298.50;2064243;28;20054;-55
2023/06/15 04:19:01;;;;;;;7.03;5.70;;;;;;;23.61;66.29;98302.53;2063914;28;20535;-55
2023/06/15 04:20:05;;;;;;;5.85;5.28;;;;;;;23.63;66.52;98296.88;2063018;28;20928;-51
2023/06/15 04:21:06;;;;;;;6.07;5.47;;;;;;;23.62;66.44;98298.78;2061619;28;20140;-53
2023/06/15 04:22:08;;;;;;;7.20;5.57;;;;;;;23.64;66.44;98303.94;2062944;28;20057;-52
2023/06/15 04:23:10;;;;;;;7.13;6.40;;;;;;;23.64;66.40;98301.22;2064817;28;20103;-51
2023/06/15 04:24:11;;;;;;;9.43;5.38;;;;;;;23.63;66.25;98303.13;2063369;28;20057;-52
2023/06/15 04:25:12;;;;;;;8.27;5.47;;;;;;;23.64;66.28;98298.50;2064107;28;20404;-52
2023/06/15 04:26:14;;;;;;;6.68;5.70;;;;;;;23.64;66.18;98303.94;2061124;28;20419;-52
2023/06/15 04:27:18;;;;;;;5.53;4.45;;;;;;;23.63;66.24;98305.00;2063672;28;20771;-56
2023/06/15 04:28:20;;;;;;;6.00;5.32;;;;;;;23.62;66.59;98311.47;2061545;28;20057;-56
2023/06/15 04:29:22;;;;;;;5.55;5.05;;;;;;;23.63;66.09;98303.13;2063603;28;20053;-54
2023/06/15 04:30:25;;;;;;;10.85;5.80;;;;;;;23.63;66.46;98297.69;2064090;28;20080;-55
2023/06/15 04:31:31;;;;;;;5.60;5.05;;;;;;;23.63;66.29;98303.13;2063090;28;20721;-55
2023/06/15 04:32:35;;;;;;;5.47;4.88;;;;;;;23.62;66.27;98300.63;2063501;28;20049;-54
2023/06/15 04:33:36;;;;;;;6.38;5.32;;;;;;;23.61;66.54;98299.81;2066201;28;20057;-52
2023/06/15 04:34:39;;;;;;;6.28;5.53;;;;;;;23.59;66.29;98301.94;2061415;28;20092;-57
2023/06/15 04:35:40;;;;;;;7.05;5.53;;;;;;;23.61;66.35;98302.53;2062447;28;20756;-54
2023/06/15 04:36:42;;;;;;;7.85;5.93;;;;;;;23.63;66.46;98302.31;2064144;28;20053;-55
2023/06/15 04:37:42;;;;;;;6.53;5.25;;;;;;;23.63;66.18;98305.00;2062338;28;20161;-52
2023/06/15 04:38:46;;;;;;;7.35;5.65;;;;;;;23.63;66.43;98305.00;2062924;28;20409;-55
2023/06/15 04:39:46;;;;;;;5.28;4.75;;;;;;;23.61;66.19;98304.41;2062605;28;20049;-55
2023/06/15 04:40:48;;;;;;;5.80;5.20;;;;;;;23.61;65.97;98304.41;2063958;28;20152;-57
2023/06/15 04:41:49;;;;;;;5.88;4.93;;;;;;;23.60;66.31;98308.22;2064750;28;20049;-56
2023/06/15 04:42:52;;;;;;;8.52;4.97;;;;;;;23.60;66.15;98298.19;2066365;28;20506;-50
2023/06/15 04:43:52;;;;;;;5.20;4.70;;;;;;;23.58;66.17;98300.31;2061505;28;20065;-54
2023/06/15 04:44:54;;;;;;;5.57;4.43;;;;;;;23.58;66.40;98311.13;2066194;28;20129;-54
2023/06/15 04:45:55;;;;;;;5.97;4.95;;;;;;;23.58;66.26;98310.31;2062323;28;20057;-52
2023/06/15 04:46:57;;;;;;;5.20;4.70;;;;;;;23.60;66.05;98302.78;2064378;28;20099;-51
2023/06/15 04:47:59;;;;;;;6.80;5.25;;;;;;;23.58;66.16;98304.91;2065916;28;20049;-56
2023/06/15 04:49:03;;;;;;;5.85;5.00;;;;;;;23.59;66.32;98301.94;2065517;28;20149;-49